Terminal Aerodrome Forecast
Issued by NWS Louisville, KY

Home | Current Version | Previous Version | Text Only | Print | Product List | Glossary On
Versions: 1 2 3 4 5 6 7 8 9 10 11 12 13 14 15 16
939
FTUS43 KLMK 090520
TAFLEX
TAF
KLEX 090520Z 0906/1006 29010KT 6SM -SHSN FEW014 BKN025
      TEMPO 0906/0910 1SM -SHSN BKN014
     FM091200 27007KT P6SM VCSH OVC018
     FM092100 27009KT 3SM -SHSN OVC018=

USA.gov is the U.S. government's official web portal to all federal, state and local government web resources and services.